FCYJMS GMMZ-GMAD
Flight info
| Callsign | FCYJMS |
|---|---|
| Flight time | N/A |
| Altitude | 9000 |
| Route | 3060N00709W 3108N00720W 3110N00728W 3112N00726W 3117N00723W 3119N00723W 3127N00725W 3135N00744W DCT GMMX DCT 3119N00756W 3111N00805W 3100N00809W 3059N00812W 3055N00820W 3030N00849W DCT 3026N00852W DCT FF27 |
| Aircraft | AS50/L-G/C |
Departure
| Time | N/A |
|---|---|
| Airport | Ouarzazate International Airport (GMMZ) |
Arrival
| Time | 2026-05-04 20:12 |
|---|---|
| Airport | Al Massira Airport (GMAD) |
| Time | Latitude | Longitude | Altitude | Speed | Heading |
|---|---|---|---|---|---|
| 2026-05-04 19:29 | 31.43550 | -7.98859 | 5763 ft | 139 kts | 159° |
| 2026-05-04 19:29 | 31.42624 | -7.98545 | 5976 ft | 140 kts | 159° |
| 2026-05-04 19:29 | 31.41707 | -7.98236 | 6206 ft | 139 kts | 160° |
| 2026-05-04 19:29 | 31.40778 | -7.97921 | 6394 ft | 139 kts | 160° |
| 2026-05-04 19:30 | 31.39851 | -7.97605 | 6563 ft | 139 kts | 160° |
| 2026-05-04 19:30 | 31.38931 | -7.97283 | 6816 ft | 135 kts | 159° |
| 2026-05-04 19:30 | 31.38028 | -7.96944 | 7050 ft | 138 kts | 159° |
| 2026-05-04 19:30 | 31.37115 | -7.96592 | 7290 ft | 139 kts | 159° |
| 2026-05-04 19:31 | 31.36194 | -7.96236 | 7526 ft | 140 kts | 159° |
| 2026-05-04 19:31 | 31.35269 | -7.95874 | 7759 ft | 140 kts | 159° |
| 2026-05-04 19:31 | 31.34348 | -7.95509 | 7997 ft | 140 kts | 160° |
| 2026-05-04 19:31 | 31.33427 | -7.95139 | 8235 ft | 140 kts | 160° |
| 2026-05-04 19:32 | 31.32511 | -7.94762 | 8475 ft | 139 kts | 160° |
| 2026-05-04 19:32 | 31.31559 | -7.94668 | 8676 ft | 139 kts | 192° |
| 2026-05-04 19:32 | 31.30763 | -7.95248 | 8903 ft | 135 kts | 225° |
| 2026-05-04 19:32 | 31.30116 | -7.96036 | 9132 ft | 135 kts | 225° |
| 2026-05-04 19:33 | 31.29426 | -7.96857 | 9105 ft | 149 kts | 225° |
| 2026-05-04 19:33 | 31.28674 | -7.97735 | 9058 ft | 156 kts | 224° |
| 2026-05-04 19:33 | 31.27893 | -7.98639 | 9039 ft | 159 kts | 224° |
| 2026-05-04 19:33 | 31.27100 | -7.99547 | 9038 ft | 160 kts | 225° |
| 2026-05-04 19:34 | 31.26282 | -8.00447 | 9042 ft | 163 kts | 224° |
| 2026-05-04 19:34 | 31.25435 | -8.01340 | 9041 ft | 165 kts | 223° |
| 2026-05-04 19:34 | 31.24579 | -8.02237 | 9043 ft | 165 kts | 223° |
| 2026-05-04 19:34 | 31.23713 | -8.03132 | 9042 ft | 167 kts | 224° |
| 2026-05-04 19:35 | 31.22835 | -8.04022 | 9037 ft | 167 kts | 223° |
| 2026-05-04 19:35 | 31.21971 | -8.04907 | 9034 ft | 165 kts | 223° |
| 2026-05-04 19:35 | 31.21090 | -8.05793 | 9041 ft | 171 kts | 223° |
| 2026-05-04 19:35 | 31.20163 | -8.06695 | 9033 ft | 175 kts | 222° |
| 2026-05-04 19:36 | 31.19227 | -8.07612 | 9035 ft | 177 kts | 223° |
| 2026-05-04 19:36 | 31.18295 | -8.08556 | 9035 ft | 178 kts | 223° |
| 2026-05-04 19:36 | 31.17363 | -8.09505 | 9035 ft | 177 kts | 223° |
| 2026-05-04 19:36 | 31.16442 | -8.10453 | 9035 ft | 176 kts | 223° |
| 2026-05-04 19:37 | 31.15533 | -8.11409 | 9036 ft | 175 kts | 223° |
| 2026-05-04 19:37 | 31.14627 | -8.12362 | 9037 ft | 175 kts | 224° |
| 2026-05-04 19:37 | 31.13653 | -8.13219 | 9037 ft | 177 kts | 210° |
| 2026-05-04 19:37 | 31.12490 | -8.13691 | 9035 ft | 178 kts | 191° |
| 2026-05-04 19:38 | 31.11264 | -8.13748 | 9039 ft | 180 kts | 177° |
| 2026-05-04 19:38 | 31.10016 | -8.13592 | 9040 ft | 180 kts | 172° |
| 2026-05-04 19:38 | 31.08766 | -8.13377 | 9039 ft | 183 kts | 171° |
| 2026-05-04 19:38 | 31.07502 | -8.13174 | 9038 ft | 184 kts | 175° |
| 2026-05-04 19:39 | 31.06226 | -8.13247 | 9040 ft | 184 kts | 190° |
| 2026-05-04 19:39 | 31.04979 | -8.13584 | 9039 ft | 183 kts | 197° |
| 2026-05-04 19:39 | 31.03774 | -8.14044 | 9033 ft | 181 kts | 201° |
| 2026-05-04 19:39 | 31.02590 | -8.14554 | 9034 ft | 182 kts | 203° |
| 2026-05-04 19:40 | 31.01465 | -8.15201 | 9031 ft | 179 kts | 211° |
| 2026-05-04 19:40 | 31.00484 | -8.16067 | 9031 ft | 176 kts | 226° |
| 2026-05-04 19:40 | 30.99743 | -8.17191 | 9032 ft | 174 kts | 240° |
| 2026-05-04 19:40 | 30.99145 | -8.18414 | 9031 ft | 173 kts | 244° |
| 2026-05-04 19:41 | 30.98589 | -8.19659 | 9026 ft | 174 kts | 244° |
| 2026-05-04 19:41 | 30.98038 | -8.20910 | 9037 ft | 172 kts | 244° |
| 2026-05-04 19:41 | 30.97487 | -8.22129 | 9027 ft | 168 kts | 243° |
| 2026-05-04 19:41 | 30.96931 | -8.23310 | 9028 ft | 165 kts | 242° |
| 2026-05-04 19:42 | 30.96361 | -8.24479 | 9027 ft | 167 kts | 242° |
| 2026-05-04 19:42 | 30.95776 | -8.25640 | 9022 ft | 165 kts | 241° |
| 2026-05-04 19:42 | 30.95186 | -8.26778 | 9026 ft | 164 kts | 240° |
| 2026-05-04 19:42 | 30.94592 | -8.27899 | 9021 ft | 162 kts | 240° |
| 2026-05-04 19:43 | 30.93999 | -8.29008 | 9020 ft | 160 kts | 239° |
| 2026-05-04 19:43 | 30.93417 | -8.30104 | 9025 ft | 160 kts | 240° |
| 2026-05-04 19:43 | 30.92824 | -8.31210 | 9022 ft | 161 kts | 240° |
| 2026-05-04 19:43 | 30.92228 | -8.32315 | 9023 ft | 161 kts | 240° |
| 2026-05-04 19:44 | 30.91593 | -8.33400 | 9011 ft | 164 kts | 234° |
| 2026-05-04 19:44 | 30.90838 | -8.34419 | 8998 ft | 168 kts | 229° |
| 2026-05-04 19:44 | 30.89979 | -8.35352 | 9002 ft | 170 kts | 223° |
| 2026-05-04 19:44 | 30.89061 | -8.36237 | 9004 ft | 172 kts | 221° |
| 2026-05-04 19:45 | 30.88121 | -8.37101 | 9003 ft | 171 kts | 220° |
| 2026-05-04 19:45 | 30.87204 | -8.37978 | 9004 ft | 170 kts | 223° |
| 2026-05-04 19:45 | 30.86361 | -8.38932 | 9008 ft | 169 kts | 228° |
| 2026-05-04 19:45 | 30.85571 | -8.39946 | 9008 ft | 169 kts | 230° |
| 2026-05-04 19:46 | 30.84811 | -8.40994 | 8999 ft | 168 kts | 232° |
| 2026-05-04 19:46 | 30.84121 | -8.42035 | 8728 ft | 150 kts | 237° |
| 2026-05-04 19:46 | 30.83559 | -8.42915 | 8638 ft | 135 kts | 237° |
| 2026-05-04 19:46 | 30.82987 | -8.43794 | 8307 ft | 137 kts | 236° |
| 2026-05-04 19:47 | 30.82394 | -8.44648 | 8094 ft | 135 kts | 235° |
| 2026-05-04 19:47 | 30.81788 | -8.45482 | 7854 ft | 136 kts | 233° |
| 2026-05-04 19:47 | 30.81171 | -8.46327 | 7591 ft | 138 kts | 233° |
| 2026-05-04 19:47 | 30.80545 | -8.47164 | 7377 ft | 137 kts | 232° |
| 2026-05-04 19:48 | 30.79905 | -8.47991 | 7139 ft | 138 kts | 231° |
| 2026-05-04 19:48 | 30.79261 | -8.48822 | 6890 ft | 138 kts | 232° |
| 2026-05-04 19:48 | 30.78626 | -8.49653 | 6580 ft | 135 kts | 234° |
| 2026-05-04 19:48 | 30.78052 | -8.50515 | 6090 ft | 136 kts | 237° |
| 2026-05-04 19:49 | 30.77499 | -8.51398 | 5604 ft | 134 kts | 237° |
| 2026-05-04 19:49 | 30.77012 | -8.52215 | 5422 ft | 102 kts | 234° |
| 2026-05-04 19:49 | 30.76644 | -8.52760 | 5525 ft | 82 kts | 225° |
| 2026-05-04 19:49 | 30.76028 | -8.53275 | 5564 ft | 129 kts | 217° |
| 2026-05-04 19:50 | 30.75258 | -8.53965 | 5555 ft | 148 kts | 221° |
| 2026-05-04 19:50 | 30.74469 | -8.54794 | 5554 ft | 157 kts | 225° |
| 2026-05-04 19:50 | 30.73698 | -8.55720 | 5551 ft | 161 kts | 228° |
| 2026-05-04 19:50 | 30.72953 | -8.56707 | 5553 ft | 163 kts | 230° |
| 2026-05-04 19:51 | 30.72225 | -8.57721 | 5559 ft | 163 kts | 231° |
| 2026-05-04 19:51 | 30.71496 | -8.58719 | 5574 ft | 161 kts | 229° |
| 2026-05-04 19:51 | 30.70697 | -8.59629 | 5584 ft | 162 kts | 223° |
| 2026-05-04 19:51 | 30.69846 | -8.60491 | 5589 ft | 163 kts | 221° |
| 2026-05-04 19:52 | 30.68973 | -8.61326 | 5589 ft | 163 kts | 220° |
| 2026-05-04 19:52 | 30.68092 | -8.62155 | 5588 ft | 163 kts | 220° |
| 2026-05-04 19:52 | 30.67216 | -8.62980 | 5577 ft | 162 kts | 221° |
| 2026-05-04 19:52 | 30.66336 | -8.63798 | 5574 ft | 162 kts | 222° |
| 2026-05-04 19:53 | 30.65755 | -8.64325 | 5560 ft | 157 kts | 220° |
| 2026-05-04 19:53 | 30.64921 | -8.65072 | 5571 ft | 148 kts | 222° |
| 2026-05-04 19:53 | 30.64084 | -8.65803 | 5575 ft | 153 kts | 221° |
| 2026-05-04 19:53 | 30.63227 | -8.66556 | 5570 ft | 156 kts | 220° |
| 2026-05-04 19:54 | 30.62365 | -8.67323 | 5565 ft | 156 kts | 221° |
| 2026-05-04 19:54 | 30.61509 | -8.68084 | 5588 ft | 153 kts | 221° |
| 2026-05-04 19:54 | 30.60664 | -8.68849 | 5445 ft | 153 kts | 222° |
| 2026-05-04 19:54 | 30.59848 | -8.69599 | 5426 ft | 146 kts | 223° |
| 2026-05-04 19:55 | 30.59061 | -8.70317 | 5354 ft | 143 kts | 223° |
| 2026-05-04 19:55 | 30.58283 | -8.71034 | 5259 ft | 140 kts | 223° |
| 2026-05-04 19:55 | 30.57550 | -8.71728 | 5272 ft | 132 kts | 227° |
| 2026-05-04 19:55 | 30.56951 | -8.72504 | 5313 ft | 127 kts | 239° |
| 2026-05-04 19:56 | 30.56451 | -8.73348 | 5231 ft | 126 kts | 243° |
| 2026-05-04 19:56 | 30.55996 | -8.74209 | 5115 ft | 124 kts | 244° |
| 2026-05-04 19:56 | 30.55559 | -8.75048 | 5011 ft | 120 kts | 244° |
| 2026-05-04 19:56 | 30.55114 | -8.75877 | 4874 ft | 123 kts | 243° |
| 2026-05-04 19:57 | 30.54657 | -8.76712 | 4778 ft | 122 kts | 242° |
| 2026-05-04 19:57 | 30.54196 | -8.77537 | 4616 ft | 121 kts | 242° |
| 2026-05-04 19:57 | 30.53727 | -8.78346 | 4427 ft | 122 kts | 241° |
| 2026-05-04 19:57 | 30.53246 | -8.79158 | 4300 ft | 121 kts | 241° |
| 2026-05-04 19:58 | 30.52769 | -8.79970 | 4167 ft | 123 kts | 240° |
| 2026-05-04 19:58 | 30.52299 | -8.80802 | 3993 ft | 124 kts | 240° |
| 2026-05-04 19:58 | 30.51831 | -8.81645 | 3849 ft | 123 kts | 240° |
| 2026-05-04 19:58 | 30.51366 | -8.82485 | 3734 ft | 123 kts | 241° |
| 2026-05-04 19:59 | 30.50906 | -8.83318 | 3636 ft | 121 kts | 241° |
| 2026-05-04 19:59 | 30.50445 | -8.84137 | 3466 ft | 123 kts | 240° |
| 2026-05-04 19:59 | 30.49981 | -8.84971 | 3307 ft | 123 kts | 240° |
| 2026-05-04 19:59 | 30.49530 | -8.85793 | 3218 ft | 119 kts | 240° |
| 2026-05-04 20:00 | 30.49089 | -8.86588 | 3094 ft | 116 kts | 240° |
| 2026-05-04 20:00 | 30.48654 | -8.87360 | 2967 ft | 113 kts | 240° |
| 2026-05-04 20:00 | 30.48223 | -8.88151 | 2791 ft | 119 kts | 239° |
| 2026-05-04 20:00 | 30.47803 | -8.88977 | 2623 ft | 119 kts | 240° |
| 2026-05-04 20:01 | 30.47387 | -8.89815 | 2497 ft | 119 kts | 240° |
| 2026-05-04 20:01 | 30.47000 | -8.90616 | 2507 ft | 112 kts | 239° |
| 2026-05-04 20:01 | 30.46601 | -8.91429 | 2501 ft | 121 kts | 239° |
| 2026-05-04 20:01 | 30.46166 | -8.92291 | 2520 ft | 128 kts | 238° |
| 2026-05-04 20:02 | 30.45676 | -8.93201 | 2495 ft | 138 kts | 237° |
| 2026-05-04 20:02 | 30.45162 | -8.94165 | 2478 ft | 142 kts | 237° |
| 2026-05-04 20:02 | 30.44673 | -8.95169 | 2477 ft | 143 kts | 242° |
| 2026-05-04 20:02 | 30.44297 | -8.96239 | 2480 ft | 144 kts | 248° |
| 2026-05-04 20:03 | 30.43980 | -8.97340 | 2480 ft | 144 kts | 250° |
| 2026-05-04 20:03 | 30.43690 | -8.98459 | 2482 ft | 146 kts | 251° |
| 2026-05-04 20:03 | 30.43398 | -8.99577 | 2481 ft | 143 kts | 249° |
| 2026-05-04 20:03 | 30.43045 | -9.00651 | 2483 ft | 144 kts | 245° |
| 2026-05-04 20:04 | 30.42646 | -9.01715 | 2482 ft | 144 kts | 243° |
| 2026-05-04 20:04 | 30.42238 | -9.02770 | 2479 ft | 143 kts | 243° |
| 2026-05-04 20:04 | 30.41831 | -9.03828 | 2481 ft | 145 kts | 244° |
| 2026-05-04 20:04 | 30.41409 | -9.04890 | 2477 ft | 145 kts | 243° |
| 2026-05-04 20:05 | 30.40986 | -9.05950 | 2483 ft | 145 kts | 243° |
| 2026-05-04 20:05 | 30.40563 | -9.07014 | 2479 ft | 146 kts | 243° |
| 2026-05-04 20:05 | 30.40140 | -9.08080 | 2479 ft | 145 kts | 244° |
| 2026-05-04 20:05 | 30.39722 | -9.09133 | 2477 ft | 144 kts | 244° |
| 2026-05-04 20:06 | 30.39271 | -9.10177 | 2481 ft | 147 kts | 244° |
| 2026-05-04 20:06 | 30.38768 | -9.11213 | 2477 ft | 146 kts | 245° |
| 2026-05-04 20:06 | 30.38236 | -9.12203 | 2472 ft | 143 kts | 243° |
| 2026-05-04 20:06 | 30.37698 | -9.13171 | 2473 ft | 144 kts | 241° |
| 2026-05-04 20:07 | 30.37173 | -9.14164 | 2472 ft | 144 kts | 245° |
| 2026-05-04 20:07 | 30.36729 | -9.15186 | 2474 ft | 141 kts | 251° |
| 2026-05-04 20:07 | 30.36396 | -9.16258 | 2473 ft | 143 kts | 256° |
| 2026-05-04 20:07 | 30.36157 | -9.17363 | 2472 ft | 144 kts | 259° |
| 2026-05-04 20:08 | 30.35948 | -9.18491 | 2472 ft | 142 kts | 261° |
| 2026-05-04 20:08 | 30.35737 | -9.19593 | 2541 ft | 137 kts | 261° |
| 2026-05-04 20:08 | 30.35528 | -9.20657 | 2419 ft | 137 kts | 261° |
| 2026-05-04 20:08 | 30.35339 | -9.21735 | 2316 ft | 135 kts | 261° |
| 2026-05-04 20:09 | 30.35176 | -9.22734 | 2370 ft | 126 kts | 262° |
| 2026-05-04 20:09 | 30.34990 | -9.23626 | 2411 ft | 119 kts | 257° |
| 2026-05-04 20:09 | 30.34723 | -9.24581 | 1964 ft | 122 kts | 253° |
| 2026-05-04 20:09 | 30.34485 | -9.25452 | 1857 ft | 103 kts | 252° |
| 2026-05-04 20:10 | 30.34279 | -9.26207 | 1911 ft | 102 kts | 251° |
| 2026-05-04 20:10 | 30.34014 | -9.27022 | 1968 ft | 117 kts | 247° |
| 2026-05-04 20:10 | 30.33685 | -9.27969 | 1918 ft | 134 kts | 247° |
| 2026-05-04 20:10 | 30.33338 | -9.29010 | 1897 ft | 142 kts | 248° |
| 2026-05-04 20:11 | 30.33001 | -9.30080 | 1887 ft | 141 kts | 249° |
| 2026-05-04 20:11 | 30.32686 | -9.31132 | 1888 ft | 136 kts | 249° |
| 2026-05-04 20:11 | 30.32451 | -9.32191 | 1887 ft | 138 kts | 257° |
| 2026-05-04 20:11 | 30.32354 | -9.33282 | 1984 ft | 132 kts | 262° |
| 2026-05-04 20:12 | 30.32317 | -9.34170 | 1928 ft | 136 kts | 266° |
| 2026-05-04 20:12 | 30.32271 | -9.35293 | 925 ft | 174 kts | 269° |
| 2026-05-04 20:12 | 30.32370 | -9.36620 | 547 ft | 146 kts | 261° |
| 2026-05-04 20:12 | 30.32386 | -9.37051 | 289 ft | 0 kts | 178° |